New Delhi, Illinois
Current Conditions -  °F | °C
As of 11:54 PM on Saturday 25 Oct 2014 (Local Time) from KSET Reporting Station
Haze Haze  
Wind Chill: 54°   Ceiling: Unl
Heat Index: 54°   Visibility: 4mi
Dew Point: 50°   Wind: 3mph
Humidity: 86%   Direction: 290°WNW
Pressure: 30.02"   Gusts: NA
Location:  39.1259°N, 90.3475°W
Report Text: KSET 260454Z AUTO 29003KT 4SM BR CLR 12/10 A3002 RMK AO2 SLP163 T01220100
Loading
Personal Weather Stations






























Interactive Weather Map
Tropical Storm Tracking
New forecast layout! Learn more

10-Day Weather Forecast

Advertisements
Track Severe Weather on mobile